createdAt,value
2018-07-07T00:02:17.032Z,12.00
2018-07-07T00:04:45.063Z,22.07
2018-07-07T00:07:13.084Z,21.40
2018-07-07T00:09:41.080Z,26.47
2018-07-07T00:12:09.068Z,16.83
2018-07-07T00:14:37.060Z,24.40
2018-07-07T00:17:05.105Z,16.93
2018-07-07T00:19:33.088Z,16.10
2018-07-07T00:22:01.102Z,22.93
2018-07-07T00:24:29.177Z,19.40
2018-07-07T00:26:57.180Z,16.77
2018-07-07T00:29:25.168Z,20.63
2018-07-07T00:31:53.142Z,19.33
2018-07-07T00:34:21.137Z,27.10
2018-07-07T00:36:49.776Z,15.20
2018-07-07T00:39:17.793Z,18.90
2018-07-07T00:41:45.780Z,23.40
2018-07-07T00:44:13.760Z,15.70
2018-07-07T00:46:41.779Z,19.50
2018-07-07T00:49:09.921Z,22.53
2018-07-07T00:51:38.389Z,18.70
2018-07-07T00:54:06.388Z,17.70
2018-07-07T00:56:34.616Z,20.03
2018-07-07T00:59:02.608Z,22.33
2018-07-07T01:01:30.629Z,29.60
2018-07-07T01:03:58.624Z,22.33
2018-07-07T01:06:28.941Z,14.30
2018-07-07T01:08:56.951Z,15.10
2018-07-07T01:11:24.985Z,24.47
2018-07-07T01:13:52.998Z,15.00
2018-07-07T01:16:21.012Z,21.13
2018-07-07T01:18:49.016Z,27.80
2018-07-07T01:21:17.008Z,24.63
2018-07-07T01:23:45.030Z,29.53
2018-07-07T01:26:13.026Z,16.73
2018-07-07T01:28:41.048Z,21.63
2018-07-07T01:31:09.709Z,17.43
2018-07-07T01:33:37.896Z,21.20
2018-07-07T01:36:06.480Z,20.67
2018-07-07T01:38:34.477Z,30.17
2018-07-07T01:41:02.477Z,16.43
2018-07-07T01:43:30.469Z,16.93
2018-07-07T01:45:58.472Z,16.33
2018-07-07T01:48:26.460Z,16.73
2018-07-07T01:50:54.632Z,23.00
2018-07-07T01:53:22.632Z,26.17
2018-07-07T01:55:50.712Z,28.67
2018-07-07T01:58:18.693Z,17.03
2018-07-07T02:00:46.788Z,19.93
2018-07-07T02:03:14.803Z,33.50
2018-07-07T02:05:42.860Z,16.37
2018-07-07T02:08:10.821Z,28.87
2018-07-07T02:10:38.844Z,20.87
2018-07-07T02:13:06.837Z,15.97
2018-07-07T02:15:34.886Z,21.63
2018-07-07T02:18:02.873Z,16.27
2018-07-07T02:20:30.879Z,26.80
2018-07-07T02:22:58.896Z,19.17
2018-07-07T02:25:26.881Z,20.60
2018-07-07T02:27:54.889Z,20.13
2018-07-07T02:30:22.969Z,29.97
2018-07-07T02:32:50.969Z,16.57
2018-07-07T02:35:18.996Z,21.40
2018-07-07T02:37:47.003Z,21.47
2018-07-07T02:40:15.015Z,20.43
2018-07-07T02:42:42.998Z,22.00
2018-07-07T02:45:11.013Z,16.63
2018-07-07T02:47:39.011Z,27.60
2018-07-07T02:50:07.058Z,24.97
2018-07-07T02:52:35.037Z,24.73
2018-07-07T02:55:03.046Z,16.87
2018-07-07T02:57:31.072Z,28.30
2018-07-07T02:59:59.056Z,43.40
2018-07-07T03:02:27.045Z,23.77
2018-07-07T03:04:55.045Z,34.53
2018-07-07T03:07:23.054Z,16.90
2018-07-07T03:09:51.021Z,23.37
2018-07-07T03:12:19.045Z,21.77
2018-07-07T03:14:47.396Z,19.67
2018-07-07T03:17:15.411Z,21.23
2018-07-07T03:19:43.394Z,25.77
2018-07-07T03:22:11.423Z,26.97
2018-07-07T03:24:39.492Z,40.50
2018-07-07T03:27:07.528Z,20.87
2018-07-07T03:29:35.696Z,17.60
2018-07-07T03:32:03.794Z,30.13
2018-07-07T03:34:31.793Z,20.53
2018-07-07T03:36:59.820Z,28.37
2018-07-07T03:39:27.837Z,24.77
2018-07-07T03:41:56.745Z,23.63
2018-07-07T03:44:24.748Z,26.27
2018-07-07T03:46:52.761Z,17.47
2018-07-07T03:49:20.753Z,12.93
2018-07-07T03:51:48.761Z,26.30
2018-07-07T03:54:16.797Z,20.50
2018-07-07T03:56:44.781Z,31.93
2018-07-07T03:59:12.793Z,16.90
2018-07-07T04:01:40.798Z,12.60
2018-07-07T04:04:08.888Z,17.57
2018-07-07T04:06:36.871Z,17.10
2018-07-07T04:09:06.808Z,19.20
2018-07-07T04:11:34.820Z,15.63
2018-07-07T04:14:02.879Z,17.03
2018-07-07T04:16:30.850Z,19.70
2018-07-07T04:18:58.929Z,22.20
2018-07-07T04:21:26.952Z,22.37
2018-07-07T04:23:54.922Z,25.13
2018-07-07T04:26:22.944Z,17.33
2018-07-07T04:28:50.969Z,19.00
2018-07-07T04:31:18.976Z,23.00
2018-07-07T04:33:46.957Z,19.77
2018-07-07T04:36:14.933Z,17.37
2018-07-07T04:38:42.932Z,26.43
2018-07-07T04:41:10.977Z,14.40
2018-07-07T04:43:38.988Z,34.53
2018-07-07T04:46:06.983Z,15.70
2018-07-07T04:48:34.992Z,13.50
2018-07-07T04:51:03.144Z,17.07
2018-07-07T04:53:31.173Z,19.47
2018-07-07T04:55:59.189Z,14.90
2018-07-07T04:58:27.192Z,20.90
2018-07-07T05:00:55.212Z,17.30
2018-07-07T05:03:23.201Z,13.23
2018-07-07T05:05:51.201Z,13.17
2018-07-07T05:08:19.210Z,17.17
2018-07-07T05:10:47.244Z,21.03
2018-07-07T05:13:15.232Z,19.93
2018-07-07T05:15:43.257Z,22.33
2018-07-07T05:18:11.251Z,13.50
2018-07-07T05:20:39.253Z,17.50
2018-07-07T05:23:07.275Z,16.43
2018-07-07T05:25:35.243Z,7.77
2018-07-07T05:28:03.249Z,16.10
2018-07-07T05:30:31.261Z,17.43
2018-07-07T05:32:59.272Z,14.00
2018-07-07T05:35:27.285Z,18.63
2018-07-07T05:37:55.272Z,45.50
2018-07-07T05:40:23.309Z,12.40
2018-07-07T05:42:51.289Z,18.80
2018-07-07T05:45:19.301Z,19.63
2018-07-07T05:47:47.325Z,17.07
2018-07-07T05:50:15.327Z,18.60
2018-07-07T05:52:43.321Z,16.00
2018-07-07T05:55:11.343Z,9.47
2018-07-07T05:57:39.345Z,22.33
2018-07-07T06:00:07.328Z,14.93
2018-07-07T06:02:35.357Z,14.47
2018-07-07T06:05:03.482Z,12.20
2018-07-07T06:07:31.478Z,16.20
2018-07-07T06:09:59.460Z,16.20
2018-07-07T06:12:27.484Z,9.93
2018-07-07T06:14:55.474Z,28.33
2018-07-07T06:17:23.473Z,22.97
2018-07-07T06:19:51.488Z,19.77
2018-07-07T06:22:19.458Z,10.73
2018-07-07T06:24:47.449Z,21.30
2018-07-07T06:27:15.453Z,11.70
2018-07-07T06:29:43.435Z,12.77
2018-07-07T06:32:11.548Z,19.40
2018-07-07T06:34:39.529Z,14.90
2018-07-07T06:37:07.529Z,12.20
2018-07-07T06:39:35.504Z,13.50
2018-07-07T06:42:03.497Z,11.93
2018-07-07T06:44:31.552Z,19.53
2018-07-07T06:46:59.547Z,8.33
2018-07-07T06:49:27.857Z,16.87
2018-07-07T06:51:55.939Z,13.63
2018-07-07T06:54:23.932Z,13.57
2018-07-07T06:56:51.998Z,10.63
2018-07-07T06:59:19.979Z,15.50
2018-07-07T07:01:47.944Z,14.10
2018-07-07T07:04:15.928Z,17.57
2018-07-07T07:06:43.901Z,11.77
2018-07-07T07:09:11.884Z,16.40
2018-07-07T07:11:39.869Z,13.30
2018-07-07T07:14:08.145Z,9.00
2018-07-07T07:16:36.116Z,15.47
2018-07-07T07:19:04.388Z,15.17
2018-07-07T07:21:32.561Z,9.47
2018-07-07T07:24:00.867Z,10.73
2018-07-07T07:26:29.381Z,13.43
2018-07-07T07:28:57.357Z,11.10
2018-07-07T07:31:25.328Z,9.33
2018-07-07T07:33:53.312Z,11.63
2018-07-07T07:36:32.721Z,12.80
2018-07-07T07:39:00.720Z,9.10
2018-07-07T07:41:28.789Z,9.83
2018-07-07T07:43:56.989Z,12.43
2018-07-07T07:46:24.968Z,9.63
2018-07-07T07:48:52.941Z,10.03
2018-07-07T07:51:20.965Z,11.67
2018-07-07T07:53:48.955Z,13.00
2018-07-07T07:56:16.921Z,6.37
2018-07-07T07:58:44.904Z,8.03
2018-07-07T08:01:12.965Z,9.33
2018-07-07T08:03:41.336Z,9.93
2018-07-07T08:06:09.944Z,11.40
2018-07-07T08:08:37.888Z,10.97
2018-07-07T08:11:06.104Z,13.73
2018-07-07T08:13:34.325Z,9.77
2018-07-07T08:16:02.350Z,8.73
2018-07-07T08:18:30.340Z,9.33
2018-07-07T08:20:58.340Z,12.40
2018-07-07T08:23:26.327Z,11.23
2018-07-07T08:25:54.352Z,8.23
2018-07-07T08:28:22.416Z,6.60
2018-07-07T08:30:50.360Z,4.80
2018-07-07T08:33:18.360Z,7.20
2018-07-07T08:35:46.360Z,9.30
2018-07-07T08:38:16.733Z,12.63
2018-07-07T08:40:45.093Z,9.37
2018-07-07T08:43:14.189Z,11.53
2018-07-07T08:45:43.194Z,9.20
2018-07-07T08:48:11.169Z,8.97
2018-07-07T08:50:39.317Z,7.00
2018-07-07T08:53:07.312Z,5.90
2018-07-07T08:55:35.309Z,4.90
2018-07-07T08:58:03.429Z,7.20
2018-07-07T09:00:31.408Z,8.67
2018-07-07T09:02:59.401Z,12.47
2018-07-07T09:05:27.912Z,28.40
2018-07-07T09:07:55.920Z,17.23
2018-07-07T09:10:23.917Z,7.10
2018-07-07T09:12:51.909Z,6.43
2018-07-07T09:15:19.927Z,10.07
2018-07-07T09:17:47.917Z,6.47
2018-07-07T09:20:15.936Z,16.30
2018-07-07T09:22:43.916Z,7.13
2018-07-07T09:25:11.916Z,12.87
2018-07-07T09:27:39.912Z,8.03
2018-07-07T09:30:07.989Z,4.13
2018-07-07T09:32:36.142Z,7.17
2018-07-07T09:35:04.313Z,12.37
2018-07-07T09:37:32.332Z,3.77
2018-07-07T09:40:00.346Z,2.93
2018-07-07T09:42:28.368Z,5.50
2018-07-07T09:44:56.400Z,5.63
2018-07-07T09:47:24.372Z,9.70
2018-07-07T09:49:52.400Z,3.23
2018-07-07T09:52:20.596Z,4.97
2018-07-07T09:54:48.872Z,3.90
2018-07-07T09:57:16.869Z,4.73
2018-07-07T09:59:44.884Z,4.90
2018-07-07T10:02:12.864Z,3.83
2018-07-07T10:04:40.860Z,4.10
2018-07-07T10:07:08.861Z,9.50
2018-07-07T10:09:36.868Z,6.20
2018-07-07T10:12:04.893Z,7.50
2018-07-07T10:14:32.893Z,12.23
2018-07-07T10:17:00.877Z,5.40
2018-07-07T10:19:28.889Z,3.70
2018-07-07T10:21:56.905Z,4.40
2018-07-07T10:24:24.900Z,4.83
2018-07-07T10:26:52.938Z,6.90
2018-07-07T10:29:20.937Z,9.63
2018-07-07T10:31:48.929Z,10.30
2018-07-07T10:34:16.911Z,9.57
2018-07-07T10:36:44.895Z,7.83
2018-07-07T10:39:12.916Z,8.63
2018-07-07T10:41:40.951Z,8.87
2018-07-07T10:44:08.977Z,9.27
2018-07-07T10:46:36.985Z,5.10
2018-07-07T10:49:04.997Z,6.67
2018-07-07T10:51:32.984Z,6.13
2018-07-07T10:54:00.963Z,7.13
2018-07-07T10:56:28.988Z,4.30
2018-07-07T10:58:57.075Z,13.40
2018-07-07T11:01:25.025Z,6.80
2018-07-07T11:03:53.133Z,14.73
2018-07-07T11:06:21.144Z,7.13
2018-07-07T11:08:49.204Z,7.00
2018-07-07T11:11:17.214Z,13.23
2018-07-07T11:13:45.229Z,11.03
2018-07-07T11:16:13.203Z,6.80
2018-07-07T11:18:41.212Z,13.93
2018-07-07T11:21:09.201Z,7.47
2018-07-07T11:23:37.221Z,11.50
2018-07-07T11:26:05.236Z,7.20
2018-07-07T11:28:33.328Z,8.63
2018-07-07T11:31:01.468Z,6.97
2018-07-07T11:33:29.456Z,7.83
2018-07-07T11:35:57.457Z,9.03
2018-07-07T11:38:25.523Z,5.33
2018-07-07T11:40:53.504Z,8.27
2018-07-07T11:43:21.494Z,4.93
2018-07-07T11:45:49.553Z,10.23
2018-07-07T11:48:17.604Z,9.53
2018-07-07T11:50:45.580Z,10.33
2018-07-07T11:53:13.590Z,9.93
2018-07-07T11:55:41.633Z,4.67
2018-07-07T11:58:09.772Z,10.90
2018-07-07T12:00:37.797Z,6.73
2018-07-07T12:03:05.994Z,8.33
2018-07-07T12:05:34.826Z,5.17
2018-07-07T12:08:13.785Z,9.90
2018-07-07T12:10:30.854Z,4.20
2018-07-07T12:12:58.869Z,6.10
2018-07-07T12:15:26.848Z,6.10
2018-07-07T12:17:55.381Z,15.00
2018-07-07T12:20:23.386Z,9.27
2018-07-07T12:22:51.376Z,4.83
2018-07-07T12:25:19.362Z,7.27
2018-07-07T12:27:47.341Z,8.03
2018-07-07T12:30:15.333Z,3.47
2018-07-07T12:32:43.425Z,5.27
2018-07-07T12:35:11.569Z,6.53
2018-07-07T12:37:39.558Z,3.80
2018-07-07T12:40:07.561Z,11.70
2018-07-07T12:42:35.552Z,7.53
2018-07-07T12:45:03.568Z,6.63
2018-07-07T12:47:31.593Z,7.67
2018-07-07T12:49:59.659Z,9.33
2018-07-07T12:52:27.602Z,7.77
2018-07-07T12:54:55.597Z,11.23
2018-07-07T12:57:23.595Z,4.77
2018-07-07T12:59:51.575Z,5.60
2018-07-07T13:02:19.586Z,10.80
2018-07-07T13:04:47.568Z,5.10
2018-07-07T13:07:15.578Z,7.13
2018-07-07T13:09:43.592Z,13.80
2018-07-07T13:12:11.597Z,4.70
2018-07-07T13:14:39.613Z,4.43
2018-07-07T13:17:07.780Z,9.07
2018-07-07T13:19:35.792Z,4.53
2018-07-07T13:22:03.820Z,12.17
2018-07-07T13:24:31.833Z,11.20
2018-07-07T13:26:59.809Z,5.43
2018-07-07T13:29:27.793Z,8.40
2018-07-07T13:31:55.780Z,4.93
2018-07-07T13:34:23.838Z,11.47
2018-07-07T13:36:51.841Z,3.90
2018-07-07T13:39:19.869Z,2.83
2018-07-07T13:41:47.872Z,7.00
2018-07-07T13:44:15.985Z,3.60
2018-07-07T13:46:43.967Z,9.03
2018-07-07T13:49:11.957Z,9.77
2018-07-07T13:51:39.953Z,2.10
2018-07-07T13:54:09.020Z,16.83
2018-07-07T13:56:36.976Z,15.27
2018-07-07T13:59:04.977Z,10.17
2018-07-07T14:01:33.032Z,9.10
2018-07-07T14:04:01.016Z,2.80
2018-07-07T14:06:29.025Z,19.77
2018-07-07T14:08:57.012Z,6.60
2018-07-07T14:11:25.009Z,7.17
2018-07-07T14:13:53.100Z,12.00
2018-07-07T14:16:21.196Z,5.60
2018-07-07T14:18:50.084Z,14.73
2018-07-07T14:21:18.096Z,4.13
2018-07-07T14:23:46.121Z,11.63
2018-07-07T14:26:14.148Z,5.63
2018-07-07T14:28:42.185Z,10.80
2018-07-07T14:34:01.201Z,7.13
2018-07-07T14:36:29.217Z,10.33
2018-07-07T14:38:57.210Z,6.43
2018-07-07T14:41:25.177Z,7.57
2018-07-07T14:44:02.515Z,4.63
2018-07-07T14:46:31.062Z,15.17
2018-07-07T14:48:59.187Z,6.63
2018-07-07T14:51:27.825Z,7.00
2018-07-07T14:53:55.810Z,11.53
2018-07-07T14:56:24.641Z,4.07
2018-07-07T14:58:52.767Z,9.63
2018-07-07T15:01:20.800Z,5.43
2018-07-07T15:03:48.794Z,7.77
2018-07-07T15:06:16.806Z,12.33
2018-07-07T15:08:45.110Z,11.77
2018-07-07T15:11:13.261Z,10.40
2018-07-07T15:13:41.298Z,4.53
2018-07-07T15:16:09.281Z,5.00
2018-07-07T15:18:37.479Z,8.10
2018-07-07T15:21:05.792Z,5.90
2018-07-07T15:23:33.792Z,10.70
2018-07-07T15:26:02.279Z,11.53
2018-07-07T15:28:30.312Z,5.77
2018-07-07T15:30:58.304Z,7.13
2018-07-07T15:33:26.298Z,8.63
2018-07-07T15:35:54.284Z,6.53
2018-07-07T15:38:22.270Z,6.17
2018-07-07T15:40:50.277Z,6.20
2018-07-07T15:43:18.281Z,13.60
2018-07-07T15:45:46.388Z,6.53
2018-07-07T15:48:14.436Z,4.10
2018-07-07T15:50:42.461Z,9.87
2018-07-07T15:53:10.444Z,5.07
2018-07-07T15:55:38.656Z,8.30
2018-07-07T15:58:06.664Z,4.47
2018-07-07T16:00:34.763Z,9.70
2018-07-07T16:03:02.805Z,5.60
2018-07-07T16:05:30.809Z,5.73
2018-07-07T16:07:59.096Z,12.70
2018-07-07T16:10:27.137Z,7.30
2018-07-07T16:12:55.184Z,5.23
2018-07-07T16:15:23.208Z,14.60
2018-07-07T16:17:51.221Z,7.93
2018-07-07T16:20:19.241Z,10.87
2018-07-07T16:22:47.232Z,9.23
2018-07-07T16:25:15.243Z,6.73
2018-07-07T16:27:43.280Z,5.93
2018-07-07T16:30:11.353Z,6.77
2018-07-07T16:32:39.341Z,7.20
2018-07-07T16:35:07.345Z,4.00
2018-07-07T16:37:35.352Z,3.77
2018-07-07T16:40:03.974Z,1.90
2018-07-07T16:42:32.314Z,3.77
2018-07-07T16:45:00.666Z,7.50
2018-07-07T16:47:28.684Z,11.57
2018-07-07T16:49:56.737Z,5.23
2018-07-07T16:52:25.773Z,13.63
2018-07-07T16:54:53.821Z,3.20
2018-07-07T16:57:21.825Z,4.60
2018-07-07T16:59:49.872Z,5.50
2018-07-07T17:02:18.254Z,5.03
2018-07-07T17:04:46.285Z,5.27
2018-07-07T17:07:14.488Z,5.70
2018-07-07T17:09:42.489Z,10.80
2018-07-07T17:12:10.616Z,4.53
2018-07-07T17:14:38.640Z,4.47
2018-07-07T17:17:06.697Z,2.47
2018-07-07T17:19:34.693Z,4.23
2018-07-07T17:22:02.967Z,9.20
2018-07-07T17:24:31.487Z,5.70
2018-07-07T17:26:59.598Z,7.00
2018-07-07T17:29:28.137Z,6.47
2018-07-07T17:31:56.534Z,5.43
2018-07-07T17:34:24.965Z,4.53
2018-07-07T17:36:53.035Z,5.10
2018-07-07T17:39:21.060Z,3.17
2018-07-07T17:41:49.057Z,9.90
2018-07-07T17:44:18.160Z,2.27
2018-07-07T17:46:46.197Z,6.27
2018-07-07T17:49:14.834Z,4.40
2018-07-07T17:51:42.881Z,7.80
2018-07-07T17:54:10.883Z,3.33
2018-07-07T17:56:39.792Z,1.90
2018-07-07T17:59:07.791Z,4.70
2018-07-07T18:01:36.283Z,2.57
2018-07-07T18:04:04.302Z,7.60
2018-07-07T18:06:32.274Z,11.50
2018-07-07T18:09:00.304Z,7.80
2018-07-07T18:11:28.378Z,5.30
2018-07-07T18:13:56.390Z,8.17
2018-07-07T18:16:24.411Z,2.43
2018-07-07T18:18:52.413Z,13.27
2018-07-07T18:21:20.499Z,8.53
2018-07-07T18:23:48.576Z,6.20
2018-07-07T18:26:16.575Z,6.63
2018-07-07T18:28:44.601Z,5.77
2018-07-07T18:31:12.724Z,8.50
2018-07-07T18:33:40.896Z,6.53
2018-07-07T18:36:08.916Z,3.80
2018-07-07T18:38:36.949Z,5.90
2018-07-07T18:41:04.972Z,10.23
2018-07-07T18:43:32.989Z,3.00
2018-07-07T18:46:01.012Z,9.13
2018-07-07T18:48:29.037Z,4.63
2018-07-07T18:50:57.036Z,8.70
2018-07-07T18:53:25.043Z,10.03
2018-07-07T18:55:53.051Z,7.73
2018-07-07T18:58:21.077Z,17.50
2018-07-07T19:00:49.060Z,6.10
2018-07-07T19:03:17.048Z,7.33
2018-07-07T19:05:45.058Z,5.40
2018-07-07T19:08:13.077Z,6.80
2018-07-07T19:10:41.745Z,6.50
2018-07-07T19:13:09.785Z,7.83
2018-07-07T19:15:37.801Z,8.63
2018-07-07T19:18:05.936Z,10.53
2018-07-07T19:20:39.376Z,10.80
2018-07-07T19:23:12.880Z,8.40
2018-07-07T19:25:46.292Z,8.73
2018-07-07T19:28:14.272Z,7.73
2018-07-07T19:30:42.280Z,9.00
2018-07-07T19:33:15.856Z,12.23
2018-07-07T19:35:49.346Z,6.47
2018-07-07T19:38:17.356Z,6.40
2018-07-07T19:40:45.445Z,6.00
2018-07-07T19:43:13.396Z,7.80
2018-07-07T19:45:41.377Z,8.17
2018-07-07T19:48:09.385Z,6.33
2018-07-07T19:50:37.377Z,4.83
2018-07-07T19:53:05.394Z,6.70
2018-07-07T19:55:33.395Z,10.80
2018-07-07T19:58:01.386Z,7.90
2018-07-07T20:00:29.376Z,7.87
2018-07-07T20:02:57.365Z,8.20
2018-07-07T20:05:25.349Z,9.33
2018-07-07T20:07:53.387Z,12.17
2018-07-07T20:10:21.318Z,17.40
2018-07-07T20:12:49.319Z,9.73
2018-07-07T20:15:17.295Z,6.93
2018-07-07T20:17:56.864Z,8.53
2018-07-07T20:20:37.053Z,11.13
2018-07-07T20:23:06.158Z,16.33
2018-07-07T20:25:34.160Z,3.90
2018-07-07T20:28:07.670Z,7.50
2018-07-07T20:30:36.207Z,4.90
2018-07-07T20:33:04.397Z,7.47
2018-07-07T20:35:32.403Z,7.13
2018-07-07T20:38:00.593Z,12.53
2018-07-07T20:40:28.820Z,9.33
2018-07-07T20:42:56.991Z,8.77
2018-07-07T20:45:25.020Z,11.80
2018-07-07T20:47:53.320Z,7.93
2018-07-07T20:50:21.405Z,12.00
2018-07-07T20:52:49.396Z,7.63
2018-07-07T20:55:17.396Z,15.63
2018-07-07T20:57:45.418Z,3.90
2018-07-07T21:00:13.685Z,11.90
2018-07-07T21:02:41.649Z,8.13
2018-07-07T21:05:09.839Z,11.23
2018-07-07T21:07:37.871Z,2.83
2018-07-07T21:12:40.404Z,7.73
2018-07-07T21:15:08.372Z,18.03
2018-07-07T21:17:36.382Z,7.10
2018-07-07T21:20:04.581Z,14.20
2018-07-07T21:22:32.693Z,11.63
2018-07-07T21:25:00.673Z,12.80
2018-07-07T21:27:28.650Z,14.70
2018-07-07T21:29:56.620Z,9.53
2018-07-07T21:32:24.592Z,8.87
2018-07-07T21:34:52.576Z,8.00
2018-07-07T21:37:20.549Z,9.30
2018-07-07T21:39:48.545Z,16.67
2018-07-07T21:42:16.517Z,7.90
2018-07-07T21:44:44.516Z,11.40
2018-07-07T21:47:12.624Z,10.90
2018-07-07T21:49:40.664Z,13.23
2018-07-07T21:52:08.636Z,12.10
2018-07-07T21:54:36.656Z,11.50
2018-07-07T21:57:04.665Z,14.70
2018-07-07T21:59:32.648Z,15.83
2018-07-07T22:02:06.072Z,10.77
2018-07-07T22:04:39.472Z,12.87
2018-07-07T22:07:13.485Z,13.90
2018-07-07T22:09:42.320Z,20.57
2018-07-07T22:12:10.353Z,3.43
2018-07-07T22:14:38.370Z,9.13
2018-07-07T22:17:06.365Z,14.93
2018-07-07T22:19:34.377Z,9.40
2018-07-07T22:22:03.557Z,13.83
2018-07-07T22:24:31.590Z,7.30
2018-07-07T22:27:00.593Z,6.03
2018-07-07T22:29:28.750Z,9.83
2018-07-07T22:31:58.861Z,15.17
2018-07-07T22:34:31.336Z,16.77
2018-07-07T22:36:59.340Z,10.23
2018-07-07T22:39:27.392Z,7.60
2018-07-07T22:41:59.875Z,11.83
2018-07-07T22:44:27.773Z,11.20
2018-07-07T22:46:56.093Z,6.43
2018-07-07T22:49:24.885Z,8.90
2018-07-07T22:51:52.980Z,8.70
2018-07-07T22:54:20.978Z,10.33
2018-07-07T22:56:48.961Z,14.57
2018-07-07T22:59:16.951Z,11.87
2018-07-07T23:01:44.949Z,13.43
2018-07-07T23:04:12.952Z,11.83
2018-07-07T23:06:42.121Z,12.83
2018-07-07T23:09:11.407Z,14.83
2018-07-07T23:11:40.374Z,12.03
2018-07-07T23:14:08.374Z,8.30
2018-07-07T23:16:36.364Z,11.47
2018-07-07T23:19:05.237Z,12.27
2018-07-07T23:21:33.529Z,5.80
2018-07-07T23:24:01.922Z,13.13
2018-07-07T23:26:30.470Z,9.93
2018-07-07T23:28:59.054Z,10.33
2018-07-07T23:31:27.092Z,21.10
2018-07-07T23:33:55.100Z,16.00
2018-07-07T23:36:23.072Z,15.13
2018-07-07T23:38:51.053Z,9.63
2018-07-07T23:41:19.100Z,10.40
2018-07-07T23:43:47.135Z,15.83
2018-07-07T23:46:15.124Z,13.13
2018-07-07T23:48:43.131Z,19.00
2018-07-07T23:51:11.320Z,15.10
2018-07-07T23:53:39.770Z,11.40
2018-07-07T23:56:08.050Z,20.23
2018-07-07T23:58:36.096Z,8.83
